createdAt,value
2019-05-23T00:01:44.567Z,80.22
2019-05-23T00:04:42.828Z,79.54
2019-05-23T00:07:29.655Z,80.41
2019-05-23T00:10:22.409Z,80.25
2019-05-23T00:13:03.440Z,80.43
2019-05-23T00:15:35.392Z,80.38
2019-05-23T00:18:05.707Z,79.75
2019-05-23T00:20:33.722Z,80.21
2019-05-23T00:23:01.683Z,80.15
2019-05-23T00:25:29.791Z,79.87
2019-05-23T00:27:57.650Z,78.86
2019-05-23T00:30:31.815Z,79.87
2019-05-23T00:32:59.140Z,79.79
2019-05-23T00:35:25.757Z,80.17
2019-05-23T00:37:53.111Z,81.16
2019-05-23T00:40:20.796Z,81.43
2019-05-23T00:42:47.895Z,81.11
2019-05-23T00:45:16.807Z,80.16
2019-05-23T00:47:46.115Z,81.11
2019-05-23T00:50:16.293Z,81.57
2019-05-23T00:52:43.020Z,81.91
2019-05-23T00:55:12.018Z,80.82
2019-05-23T00:57:39.367Z,80.41
2019-05-23T01:00:09.220Z,80.53
2019-05-23T01:02:38.681Z,81.04
2019-05-23T01:05:06.446Z,80.35
2019-05-23T01:07:34.304Z,80.29
2019-05-23T01:10:02.200Z,80.30
2019-05-23T01:12:30.453Z,79.94
2019-05-23T01:14:57.586Z,79.73
2019-05-23T01:17:24.993Z,79.71
2019-05-23T01:19:54.109Z,80.71
2019-05-23T01:22:21.352Z,80.72
2019-05-23T01:24:51.594Z,81.46
2019-05-23T01:27:18.715Z,80.96
2019-05-23T01:29:50.069Z,80.65
2019-05-23T01:32:39.115Z,80.46
2019-05-23T01:35:09.190Z,79.85
2019-05-23T01:37:37.179Z,80.18
2019-05-23T01:40:04.681Z,80.69
2019-05-23T01:42:32.235Z,80.13
2019-05-23T01:44:59.507Z,79.49
2019-05-23T01:47:26.577Z,79.46
2019-05-23T01:49:54.019Z,79.46
2019-05-23T01:52:21.602Z,79.30
2019-05-23T01:54:48.215Z,79.30
2019-05-23T01:57:15.134Z,78.31
2019-05-23T01:59:42.187Z,79.47
2019-05-23T02:02:10.589Z,79.44
2019-05-23T02:04:37.199Z,79.33
2019-05-23T02:07:04.385Z,79.20
2019-05-23T02:09:31.515Z,79.60
2019-05-23T02:11:58.234Z,79.08
2019-05-23T02:14:25.799Z,79.22
2019-05-23T02:16:53.203Z,79.55
2019-05-23T02:19:20.360Z,79.25
2019-05-23T02:21:47.549Z,79.25
2019-05-23T02:24:16.259Z,78.95
2019-05-23T02:26:43.917Z,78.58
2019-05-23T02:29:11.013Z,79.99
2019-05-23T02:31:40.471Z,79.89
2019-05-23T02:34:08.520Z,80.09
2019-05-23T02:36:35.412Z,80.45
2019-05-23T02:39:30.570Z,79.79
2019-05-23T02:42:04.034Z,79.83
2019-05-23T02:44:32.462Z,80.31
2019-05-23T02:47:04.337Z,80.12
2019-05-23T02:49:32.942Z,80.17
2019-05-23T02:52:13.609Z,80.07
2019-05-23T02:54:40.389Z,80.20
2019-05-23T02:57:09.614Z,80.09
2019-05-23T02:59:44.775Z,80.66
2019-05-23T03:02:57.600Z,80.15
2019-05-23T03:05:25.439Z,80.04
2019-05-23T03:07:53.178Z,80.08
2019-05-23T03:10:20.440Z,79.26
2019-05-23T03:12:48.846Z,79.33
2019-05-23T03:15:16.181Z,79.93
2019-05-23T03:17:49.470Z,79.03
2019-05-23T03:20:16.100Z,79.05
2019-05-23T03:22:47.545Z,78.88
2019-05-23T03:25:49.903Z,78.78
2019-05-23T03:28:18.466Z,78.96
2019-05-23T03:30:47.168Z,79.13
2019-05-23T03:33:15.260Z,79.15
2019-05-23T03:35:43.622Z,79.77
2019-05-23T03:38:10.472Z,80.04
2019-05-23T03:40:37.232Z,79.15
2019-05-23T03:43:04.442Z,79.32
2019-05-23T03:45:39.197Z,78.74
2019-05-23T03:48:06.487Z,78.00
2019-05-23T03:50:34.933Z,78.67
2019-05-23T03:53:02.477Z,78.13
2019-05-23T03:55:30.046Z,79.02
2019-05-23T03:57:56.779Z,79.14
2019-05-23T04:00:26.161Z,78.47
2019-05-23T04:02:53.795Z,79.03
2019-05-23T04:05:21.294Z,79.41
2019-05-23T04:07:48.112Z,79.29
2019-05-23T04:10:15.027Z,79.49
2019-05-23T04:12:42.145Z,80.13
2019-05-23T04:15:10.385Z,77.92
2019-05-23T04:17:39.219Z,78.05
2019-05-23T04:20:06.986Z,79.68
2019-05-23T04:22:34.062Z,81.01
2019-05-23T04:25:02.387Z,79.83
2019-05-23T04:27:29.610Z,80.06
2019-05-23T04:29:56.550Z,78.08
2019-05-23T04:32:23.174Z,78.97
2019-05-23T04:34:50.365Z,80.17
2019-05-23T04:37:17.116Z,79.21
2019-05-23T04:39:43.758Z,78.72
2019-05-23T04:42:11.135Z,80.39
2019-05-23T04:44:38.283Z,80.78
2019-05-23T04:47:05.599Z,81.81
2019-05-23T04:49:32.356Z,79.02
2019-05-23T04:51:59.011Z,80.59
2019-05-23T04:54:26.348Z,79.42
2019-05-23T04:56:53.118Z,80.18
2019-05-23T04:59:19.851Z,79.56
2019-05-23T05:01:46.841Z,79.17
2019-05-23T05:04:13.792Z,76.54
2019-05-23T05:06:41.436Z,78.03
2019-05-23T05:09:10.650Z,76.62
2019-05-23T05:11:38.010Z,75.40
2019-05-23T05:14:05.693Z,73.15
2019-05-23T05:16:32.575Z,73.44
2019-05-23T05:18:59.301Z,74.10
2019-05-23T05:21:28.307Z,72.43
2019-05-23T05:23:55.104Z,73.39
2019-05-23T05:26:22.098Z,72.75
2019-05-23T05:28:50.009Z,73.14
2019-05-23T05:31:17.036Z,71.67
2019-05-23T05:33:43.730Z,73.03
2019-05-23T05:36:10.434Z,71.70
2019-05-23T05:38:37.630Z,71.04
2019-05-23T05:41:05.235Z,69.90
2019-05-23T05:43:32.662Z,68.49
2019-05-23T05:45:59.403Z,68.01
2019-05-23T05:48:27.479Z,67.09
2019-05-23T05:50:55.037Z,67.56
2019-05-23T05:53:22.207Z,66.21
2019-05-23T05:55:48.980Z,65.49
2019-05-23T05:58:15.806Z,65.25
2019-05-23T06:00:53.198Z,67.41
2019-05-23T06:03:20.053Z,65.11
2019-05-23T06:05:56.915Z,64.76
2019-05-23T06:08:25.602Z,65.12
2019-05-23T06:10:52.564Z,62.63
2019-05-23T06:13:22.553Z,61.55
2019-05-23T06:15:50.669Z,61.68
2019-05-23T06:18:17.847Z,61.45
2019-05-23T06:20:46.491Z,60.09
2019-05-23T06:23:13.475Z,60.35
2019-05-23T06:25:40.346Z,61.41
2019-05-23T06:28:08.172Z,61.29
2019-05-23T06:30:37.531Z,58.91
2019-05-23T06:33:21.896Z,56.46
2019-05-23T06:35:34.034Z,55.80
2019-05-23T06:38:01.271Z,57.50
2019-05-23T06:40:28.700Z,54.82
2019-05-23T06:42:55.715Z,54.16
2019-05-23T06:45:22.519Z,56.27
2019-05-23T06:47:49.140Z,53.48
2019-05-23T06:50:18.946Z,52.69
2019-05-23T06:52:45.845Z,52.52
2019-05-23T06:55:12.502Z,53.87
2019-05-23T06:57:39.408Z,50.21
2019-05-23T07:00:07.468Z,49.10
2019-05-23T07:02:34.368Z,49.52
2019-05-23T07:05:02.208Z,48.07
2019-05-23T07:07:30.382Z,51.05
2019-05-23T07:09:57.414Z,50.48
2019-05-23T07:12:24.694Z,52.61
2019-05-23T07:14:51.531Z,48.42
2019-05-23T07:17:20.476Z,53.35
2019-05-23T07:19:47.168Z,49.27
2019-05-23T07:22:13.983Z,52.48
2019-05-23T07:24:56.927Z,47.96
2019-05-23T07:27:09.860Z,45.89
2019-05-23T07:29:36.944Z,47.82
2019-05-23T07:32:04.142Z,47.15
2019-05-23T07:34:31.290Z,44.04
2019-05-23T07:36:58.882Z,42.66
2019-05-23T07:41:52.543Z,46.15
2019-05-23T07:44:19.336Z,41.28
2019-05-23T07:46:46.200Z,41.30
2019-05-23T07:49:13.301Z,39.98
2019-05-23T07:51:40.147Z,39.45
2019-05-23T07:54:33.568Z,37.45
2019-05-23T07:57:03.124Z,42.89
2019-05-23T07:59:30.181Z,42.31
2019-05-23T08:02:13.045Z,41.39
2019-05-23T08:04:40.132Z,40.14
2019-05-23T08:07:08.650Z,36.76
2019-05-23T08:09:35.682Z,39.72
2019-05-23T08:12:02.460Z,41.88
2019-05-23T08:14:29.606Z,41.99
2019-05-23T08:16:57.018Z,42.10
2019-05-23T08:19:23.612Z,36.69
2019-05-23T08:21:51.366Z,38.49
2019-05-23T08:24:18.642Z,37.86
2019-05-23T08:26:45.750Z,39.49
2019-05-23T08:29:25.512Z,37.66
2019-05-23T08:31:41.996Z,37.49
2019-05-23T08:34:09.416Z,37.41
2019-05-23T08:36:36.299Z,38.67
2019-05-23T08:39:06.895Z,41.26
2019-05-23T08:41:33.801Z,40.48
2019-05-23T08:44:00.998Z,36.22
2019-05-23T08:46:28.474Z,39.43
2019-05-23T08:48:55.786Z,38.09
2019-05-23T08:51:22.427Z,37.68
2019-05-23T08:53:49.717Z,35.89
2019-05-23T08:56:19.542Z,37.44
2019-05-23T08:58:46.463Z,36.94
2019-05-23T09:01:14.700Z,37.88
2019-05-23T09:03:41.342Z,35.71
2019-05-23T09:06:08.347Z,37.32
2019-05-23T09:08:35.734Z,35.78
2019-05-23T09:11:02.625Z,36.93
2019-05-23T09:13:29.641Z,37.02
2019-05-23T09:15:56.972Z,37.54
2019-05-23T09:18:24.153Z,35.47
2019-05-23T09:20:51.190Z,34.41
2019-05-23T09:23:17.986Z,37.37
2019-05-23T09:25:44.774Z,35.95
2019-05-23T09:28:12.186Z,36.47
2019-05-23T09:30:38.968Z,37.53
2019-05-23T09:33:07.615Z,37.02
2019-05-23T09:35:35.184Z,34.75
2019-05-23T09:38:02.177Z,36.54
2019-05-23T09:40:29.108Z,36.75
2019-05-23T09:42:55.972Z,37.56
2019-05-23T09:45:23.097Z,31.89
2019-05-23T09:47:51.311Z,33.49
2019-05-23T09:50:21.696Z,34.33
2019-05-23T09:52:48.688Z,35.32
2019-05-23T09:55:16.686Z,33.19
2019-05-23T09:57:43.487Z,32.64
2019-05-23T10:00:14.647Z,34.05
2019-05-23T10:02:41.358Z,32.33
2019-05-23T10:05:09.695Z,35.05
2019-05-23T10:07:36.472Z,33.36
2019-05-23T10:10:03.472Z,33.35
2019-05-23T10:12:31.175Z,31.29
2019-05-23T10:14:57.973Z,32.19
2019-05-23T10:17:26.280Z,33.96
2019-05-23T10:19:52.951Z,33.75
2019-05-23T10:22:20.421Z,32.58
2019-05-23T10:24:47.041Z,32.74
2019-05-23T10:27:13.652Z,33.73
2019-05-23T10:29:40.444Z,33.28
2019-05-23T10:32:09.054Z,31.34
2019-05-23T10:34:35.769Z,32.79
2019-05-23T10:37:06.198Z,32.89
2019-05-23T10:39:33.268Z,31.53
2019-05-23T10:41:59.975Z,33.33
2019-05-23T10:44:26.679Z,31.94
2019-05-23T10:46:53.545Z,32.20
2019-05-23T10:49:20.363Z,32.43
2019-05-23T10:51:47.379Z,32.54
2019-05-23T10:54:14.157Z,31.36
2019-05-23T10:56:40.865Z,32.74
2019-05-23T10:59:07.657Z,32.84
2019-05-23T11:01:35.291Z,33.84
2019-05-23T11:04:02.531Z,29.85
2019-05-23T11:06:29.924Z,31.08
2019-05-23T11:08:56.882Z,34.48
2019-05-23T11:11:27.136Z,34.13
2019-05-23T11:13:54.025Z,33.74
2019-05-23T11:16:21.672Z,35.58
2019-05-23T11:18:48.262Z,35.80
2019-05-23T11:21:14.986Z,37.38
2019-05-23T11:23:47.168Z,32.67
2019-05-23T11:26:13.878Z,33.19
2019-05-23T11:28:40.884Z,31.66
2019-05-23T11:31:08.541Z,33.84
2019-05-23T11:33:35.230Z,32.50
2019-05-23T11:36:02.124Z,32.37
2019-05-23T11:38:29.452Z,31.44
2019-05-23T11:40:56.189Z,32.87
2019-05-23T11:43:22.886Z,32.14
2019-05-23T11:46:15.395Z,36.18
2019-05-23T11:48:42.132Z,34.90
2019-05-23T11:51:08.908Z,35.44
2019-05-23T11:53:35.630Z,36.03
2019-05-23T11:56:02.892Z,32.58
2019-05-23T11:58:32.614Z,30.54
2019-05-23T12:01:32.474Z,32.25
2019-05-23T12:04:04.812Z,32.37
2019-05-23T12:06:55.215Z,34.88
2019-05-23T12:09:13.457Z,33.83
2019-05-23T12:11:42.677Z,35.20
2019-05-23T12:14:09.880Z,35.38
2019-05-23T12:16:37.165Z,39.04
2019-05-23T12:19:05.346Z,34.93
2019-05-23T12:21:35.206Z,35.42
2019-05-23T12:24:02.016Z,35.97
2019-05-23T12:26:28.706Z,36.18
2019-05-23T12:28:55.828Z,34.86
2019-05-23T12:31:24.941Z,35.26
2019-05-23T12:33:53.845Z,34.37
2019-05-23T12:36:20.927Z,36.32
2019-05-23T12:38:47.807Z,36.62
2019-05-23T12:41:15.483Z,36.83
2019-05-23T12:43:42.173Z,36.56
2019-05-23T12:46:08.966Z,38.90
2019-05-23T12:49:10.431Z,36.27
2019-05-23T12:51:39.108Z,36.69
2019-05-23T12:54:05.869Z,38.17
2019-05-23T12:56:33.273Z,36.36
2019-05-23T12:59:02.052Z,35.20
2019-05-23T13:01:31.155Z,37.89
2019-05-23T13:03:57.859Z,35.90
2019-05-23T13:06:24.858Z,33.67
2019-05-23T13:08:51.881Z,33.21
2019-05-23T13:11:18.763Z,36.10
2019-05-23T13:13:45.467Z,36.86
2019-05-23T13:16:12.846Z,36.30
2019-05-23T13:18:39.544Z,35.20
2019-05-23T13:21:06.377Z,35.20
2019-05-23T13:23:34.049Z,35.96
2019-05-23T13:26:01.845Z,36.21
2019-05-23T13:28:28.650Z,37.33
2019-05-23T13:30:55.339Z,37.11
2019-05-23T13:33:22.101Z,34.12
2019-05-23T13:35:50.158Z,34.10
2019-05-23T13:38:16.960Z,35.15
2019-05-23T13:40:43.578Z,37.09
2019-05-23T13:43:10.201Z,33.98
2019-05-23T13:45:37.148Z,34.60
2019-05-23T13:48:04.318Z,36.58
2019-05-23T13:50:31.760Z,36.61
2019-05-23T13:52:59.159Z,36.41
2019-05-23T13:55:26.010Z,36.39
2019-05-23T13:57:52.879Z,37.95
2019-05-23T14:00:28.041Z,35.53
2019-05-23T14:02:54.948Z,38.10
2019-05-23T14:05:22.081Z,38.32
2019-05-23T14:07:49.259Z,35.24
2019-05-23T14:10:16.658Z,37.73
2019-05-23T14:12:48.083Z,38.83
2019-05-23T14:15:18.993Z,37.34
2019-05-23T14:17:47.209Z,36.91
2019-05-23T14:20:15.090Z,38.05
2019-05-23T14:22:50.852Z,37.28
2019-05-23T14:25:17.931Z,37.73
2019-05-23T14:28:06.096Z,38.18
2019-05-23T14:30:39.708Z,35.77
2019-05-23T14:33:11.952Z,36.23
2019-05-23T14:35:39.849Z,36.84
2019-05-23T14:38:08.274Z,37.03
2019-05-23T14:40:35.213Z,36.13
2019-05-23T14:43:13.007Z,35.73
2019-05-23T14:45:49.280Z,38.10
2019-05-23T14:48:23.442Z,38.48
2019-05-23T14:51:09.160Z,34.98
2019-05-23T14:53:38.481Z,37.81
2019-05-23T14:56:05.515Z,35.80
2019-05-23T14:58:32.318Z,36.23
2019-05-23T15:00:59.975Z,36.60
2019-05-23T15:03:26.725Z,37.90
2019-05-23T15:05:53.776Z,35.91
2019-05-23T15:08:21.152Z,38.77
2019-05-23T15:10:48.713Z,38.12
2019-05-23T15:13:15.340Z,38.88
2019-05-23T15:15:42.060Z,38.30
2019-05-23T15:18:09.144Z,37.42
2019-05-23T15:20:36.021Z,37.21
2019-05-23T15:23:03.137Z,37.77
2019-05-23T15:25:30.285Z,37.98
2019-05-23T15:27:57.078Z,37.44
2019-05-23T15:30:23.842Z,37.78
2019-05-23T15:32:50.673Z,39.91
2019-05-23T15:35:17.405Z,38.57
2019-05-23T15:37:44.228Z,39.18
2019-05-23T15:40:11.169Z,39.56
2019-05-23T15:42:37.840Z,37.45
2019-05-23T15:45:05.495Z,37.84
2019-05-23T15:47:34.485Z,37.17
2019-05-23T15:50:08.357Z,38.68
2019-05-23T15:52:48.246Z,38.75
2019-05-23T15:55:33.541Z,37.73
2019-05-23T15:58:29.893Z,38.75
2019-05-23T16:01:14.434Z,37.54
2019-05-23T16:03:44.117Z,38.85
2019-05-23T16:06:14.027Z,38.11
2019-05-23T16:08:41.703Z,38.03
2019-05-23T16:11:08.436Z,38.27
2019-05-23T16:13:35.453Z,38.19
2019-05-23T16:16:02.357Z,39.15
2019-05-23T16:18:29.435Z,37.43
2019-05-23T16:20:56.552Z,37.08
2019-05-23T16:23:23.542Z,39.55
2019-05-23T16:25:50.299Z,37.64
2019-05-23T16:28:16.872Z,38.83
2019-05-23T16:30:44.280Z,39.21
2019-05-23T16:33:11.081Z,38.62
2019-05-23T16:35:38.044Z,38.86
2019-05-23T16:38:04.770Z,38.58
2019-05-23T16:40:32.452Z,40.97
2019-05-23T16:42:59.246Z,39.08
2019-05-23T16:45:26.534Z,39.27
2019-05-23T16:47:53.199Z,38.92
2019-05-23T16:50:20.702Z,40.01
2019-05-23T16:52:47.928Z,39.05
2019-05-23T16:55:21.139Z,39.60
2019-05-23T16:57:56.017Z,39.90
2019-05-23T17:00:42.480Z,39.90
2019-05-23T17:03:17.511Z,39.34
2019-05-23T17:06:11.740Z,40.01
2019-05-23T17:09:04.091Z,41.28
2019-05-23T17:11:50.406Z,39.90
2019-05-23T17:14:25.304Z,39.84
2019-05-23T17:17:15.487Z,40.63
2019-05-23T17:19:47.548Z,42.41
2019-05-23T17:22:29.558Z,41.50
2019-05-23T17:25:14.603Z,41.04
2019-05-23T17:28:00.134Z,40.74
2019-05-23T17:30:35.053Z,42.42
2019-05-23T17:33:02.360Z,42.91
2019-05-23T17:35:29.128Z,40.30
2019-05-23T17:37:56.070Z,40.96
2019-05-23T17:40:25.336Z,41.55
2019-05-23T17:42:51.950Z,41.34
2019-05-23T17:45:19.290Z,41.01
2019-05-23T17:47:46.134Z,41.81
2019-05-23T17:50:12.768Z,40.73
2019-05-23T17:52:39.700Z,41.28
2019-05-23T17:55:06.677Z,43.29
2019-05-23T17:57:33.576Z,42.53
2019-05-23T18:00:00.975Z,42.59
2019-05-23T18:02:28.015Z,42.73
2019-05-23T18:04:55.170Z,42.05
2019-05-23T18:07:22.082Z,42.63
2019-05-23T18:09:49.530Z,43.37
2019-05-23T18:12:16.336Z,43.43
2019-05-23T18:14:43.422Z,44.09
2019-05-23T18:17:10.458Z,44.06
2019-05-23T18:19:37.945Z,43.72
2019-05-23T18:22:07.076Z,44.47
2019-05-23T18:24:33.945Z,44.57
2019-05-23T18:27:00.965Z,45.10
2019-05-23T18:29:28.273Z,44.46
2019-05-23T18:31:55.285Z,45.40
2019-05-23T18:34:23.042Z,44.85
2019-05-23T18:36:50.237Z,44.75
2019-05-23T18:39:18.406Z,45.51
2019-05-23T18:41:45.724Z,45.26
2019-05-23T18:44:13.479Z,47.11
2019-05-23T18:46:44.180Z,45.82
2019-05-23T18:49:11.189Z,46.80
2019-05-23T18:51:39.500Z,46.68
2019-05-23T18:54:06.322Z,46.85
2019-05-23T18:56:33.111Z,46.68
2019-05-23T18:59:00.618Z,46.80
2019-05-23T19:01:27.624Z,47.38
2019-05-23T19:03:54.954Z,48.02
2019-05-23T19:06:23.395Z,49.12
2019-05-23T19:08:51.166Z,49.56
2019-05-23T19:11:21.135Z,49.07
2019-05-23T19:13:47.523Z,48.48
2019-05-23T19:16:14.249Z,48.40
2019-05-23T19:18:41.221Z,48.61
2019-05-23T19:21:09.778Z,48.99
2019-05-23T19:23:36.896Z,48.77
2019-05-23T19:26:04.112Z,49.26
2019-05-23T19:28:31.192Z,49.05
2019-05-23T19:30:58.761Z,50.46
2019-05-23T19:33:25.732Z,51.26
2019-05-23T19:35:52.681Z,50.42
2019-05-23T19:38:19.515Z,53.63
2019-05-23T19:40:46.485Z,52.65
2019-05-23T19:43:14.943Z,52.86
2019-05-23T19:45:41.843Z,52.01
2019-05-23T19:48:08.716Z,52.41
2019-05-23T19:50:36.584Z,55.97
2019-05-23T19:53:03.550Z,55.64
2019-05-23T19:55:31.192Z,55.97
2019-05-23T19:57:57.892Z,56.61
2019-05-23T20:00:26.705Z,56.75
2019-05-23T20:02:54.562Z,56.93
2019-05-23T20:05:26.196Z,58.36
2019-05-23T20:07:53.444Z,58.91
2019-05-23T20:10:21.634Z,57.57
2019-05-23T20:12:48.674Z,58.50
2019-05-23T20:15:15.552Z,57.91
2019-05-23T20:17:42.251Z,58.71
2019-05-23T20:20:09.040Z,61.61
2019-05-23T20:22:35.695Z,60.51
2019-05-23T20:25:02.655Z,59.24
2019-05-23T20:27:30.457Z,59.47
2019-05-23T20:29:57.077Z,58.84
2019-05-23T20:32:24.087Z,58.72
2019-05-23T20:34:50.795Z,60.42
2019-05-23T20:37:19.428Z,60.94
2019-05-23T20:39:46.185Z,60.82
2019-05-23T20:42:14.706Z,61.29
2019-05-23T20:44:41.723Z,60.83
2019-05-23T20:47:08.771Z,61.27
2019-05-23T20:49:35.847Z,61.55
2019-05-23T20:52:02.487Z,61.48
2019-05-23T20:54:29.118Z,60.74
2019-05-23T20:56:55.784Z,61.02
2019-05-23T20:59:23.595Z,62.53
2019-05-23T21:01:51.360Z,62.61
2019-05-23T21:04:18.215Z,62.37
2019-05-23T21:06:44.874Z,62.42
2019-05-23T21:09:15.579Z,61.97
2019-05-23T21:11:40.814Z,62.29
2019-05-23T21:14:07.613Z,62.92
2019-05-23T21:16:34.258Z,65.01
2019-05-23T21:19:00.892Z,65.18
2019-05-23T21:21:27.948Z,66.55
2019-05-23T21:23:57.032Z,65.51
2019-05-23T21:26:24.534Z,64.79
2019-05-23T21:28:51.897Z,67.35
2019-05-23T21:31:21.250Z,66.11
2019-05-23T21:33:48.265Z,66.10
2019-05-23T21:36:15.217Z,64.72
2019-05-23T21:38:41.981Z,64.12
2019-05-23T21:41:10.249Z,65.76
2019-05-23T21:43:36.962Z,63.77
2019-05-23T21:46:08.582Z,64.31
2019-05-23T21:48:37.627Z,64.10
2019-05-23T21:51:04.416Z,63.94
2019-05-23T21:53:31.754Z,64.19
2019-05-23T21:55:58.540Z,64.84
2019-05-23T21:58:25.376Z,66.21
2019-05-23T22:01:39.660Z,65.68
2019-05-23T22:04:25.241Z,66.21
2019-05-23T22:06:55.881Z,68.49
2019-05-23T22:09:24.078Z,68.61
2019-05-23T22:11:52.421Z,67.41
2019-05-23T22:14:19.885Z,65.93
2019-05-23T22:16:47.074Z,67.76
2019-05-23T22:19:17.928Z,66.53
2019-05-23T22:21:44.603Z,67.50
2019-05-23T22:24:14.230Z,65.56
2019-05-23T22:26:43.901Z,67.41
2019-05-23T22:29:10.700Z,65.87
2019-05-23T22:31:37.663Z,64.71
2019-05-23T22:34:22.949Z,65.69
2019-05-23T22:36:49.697Z,66.69
2019-05-23T22:39:16.697Z,66.41
2019-05-23T22:41:43.418Z,65.23
2019-05-23T22:44:10.147Z,67.13
2019-05-23T22:46:38.289Z,67.16
2019-05-23T22:49:05.153Z,66.19
2019-05-23T22:51:31.809Z,66.66
2019-05-23T22:53:58.478Z,67.35
2019-05-23T22:56:25.333Z,67.49
2019-05-23T22:58:52.067Z,67.21
2019-05-23T23:01:20.496Z,69.05
2019-05-23T23:03:47.597Z,69.92
2019-05-23T23:06:15.174Z,66.73
2019-05-23T23:08:41.961Z,69.31
2019-05-23T23:11:09.278Z,68.55
2019-05-23T23:13:39.062Z,68.04
2019-05-23T23:16:05.117Z,69.21
2019-05-23T23:18:32.007Z,68.31
2019-05-23T23:20:58.569Z,68.07
2019-05-23T23:23:25.450Z,69.01
2019-05-23T23:25:52.249Z,67.54
2019-05-23T23:28:19.045Z,67.68
2019-05-23T23:30:47.052Z,68.49
2019-05-23T23:33:13.658Z,69.05
2019-05-23T23:35:40.276Z,68.84
2019-05-23T23:38:07.300Z,68.60
2019-05-23T23:40:34.109Z,68.91
2019-05-23T23:43:00.725Z,69.62
2019-05-23T23:45:45.955Z,70.29
2019-05-23T23:48:32.172Z,70.31
2019-05-23T23:51:17.522Z,71.23
2019-05-23T23:54:02.669Z,70.74
2019-05-23T23:56:48.144Z,68.34
2019-05-23T23:59:14.559Z,68.88
